LFLS/GNB METAR and TAF weather

Enter ICAO airport designator
Station Type Date Time Source
LFLS METAR 2019/02/16 07:00 UTC NOAA

LFLS 160700Z AUTO 09010KT CAVOK 00/M03 Q1030 NOSIG


Station Type Date Time Source
LFLS Decoded METAR 2019/02/16 07:00 UTC NOAA

Grenoble / St. Geoirs, France (LFLS) 45-22N 005-20E 386M
Feb 16, 2019 - 02:00 AM EST / 2019.02.16 0700 UTC
Wind: from the E (090 degrees) at 12 MPH (10 KT):0
Visibility: greater than 7 mile(s):0
Temperature: 32 F (0 C)
Windchill: 23 F (-5 C):1
Dew Point: 26 F (-3 C)
Relative Humidity: 80%
Pressure (altimeter): 30.42 in. Hg (1030 hPa)
ob: LFLS 160700Z AUTO 09010KT CAVOK 00/M03 Q1030 NOSIG
cycle: 7

Station Type Date Time Source
LFLS TAF 2019/02/16 03:21 UTC NOAA

TAF LFLS 160200Z 1603/1703 09005KT CAVOK
TEMPO 1612/1618 23007KT


Example: see airport list